x

9449880 - Friday Harbor, Wa (frdw1) Weather Station

3:36 - Tue 22nd Jul 2014 All times are PDT. -7 hours from GMT.

  • Wind
    5mph, 7mph gusts
  • Sea Temp 51°f
  • Aire Temp 59°f
  • Sea Pressure 1018.5mb
  • 9449880 - Friday Harbor, Wa
  • 9449880 - Friday Harbor, Wa

More Historic Weather Station data

Upgrade to MSW Pro to gain access to the past 30 days of data for over 8000 Wavebouys and Weather Stations around the globe.

Join Pro

Comparision Forecast

View Surf forecast
   
mar 07/22 3:36 5 7 mph 1018.5mb 51f 59f
3:30 5 6 mph 1018.6mb 51f 59f
3:24 3 5 mph 1018.5mb 51f 58f
3:18 2 5 mph 1018.6mb 51f 58f
3:12 2 5 mph 1018.6mb 51f 58f
3:06 3 5 mph 1018.6mb 51f 58f
3:00 3 5 mph 1018.5mb 51f 59f
2:36 2 5 mph 1018.4mb 51f 60f
2:30 3 7 mph 1018.5mb 51f 61f
2:24 5 6 mph 1018.5mb 51f 60f
2:18 3 6 mph 1018.5mb 51f 60f
2:12 2 3 mph 1018.5mb 51f 59f
2:06 2 6 mph 1018.6mb 51f 58f
2:00 3 6 mph 1018.5mb 51f 57f
1:36  -  2 mph 1018.3mb 51f 60f
1:30 3 6 mph 1018.3mb 51f 60f
1:24 5
mph
1018.3mb 51f 60f
1:18 1 3 mph 1018.2mb 51f 61f
1:12 2 3 mph 1018.1mb 51f 61f
1:06 3 6 mph 1018.1mb 51f 61f
1:00 3 6 mph 1018.1mb 51f 61f
12:36 7 8 mph 1018mb 52f 61f
12:30 6 8 mph 1018mb 52f 62f
12:24 5 7 mph 1017.9mb 52f 62f
12:18 2 5 mph 1017.9mb 52f 62f
12:12 1 5 mph 1017.8mb 52f 63f
12:06 2 3 mph 1017.8mb 52f 62f
12:00 3 5 mph 1017.8mb 52f 63f
11:36 2 3 mph 1017.8mb 52f 60f
11:30 2 3 mph 1017.8mb 52f 59f
11:24 2 3 mph 1017.7mb 52f 59f
11:18 2 3 mph 1017.7mb 52f 58f
11:12 2 5 mph 1017.6mb 52f 58f
11:06 2 3 mph 1017.6mb 52f 58f
11:00 2 5 mph 1017.6mb 52f 58f
10:36 2 3 mph 1017.6mb 52f 57f
10:30 2
mph
1017.5mb 52f 56f
10:24 2
mph
1017.5mb 52f 56f
10:18 2 3 mph 1017.5mb 52f 57f
10:12 2
mph
1017.5mb 52f 57f
10:06 2
mph
1017.5mb 52f 56f
10:00 2
mph
1017.5mb 52f 56f
9:36 1 2 mph 1017.5mb 52f 55f
9:30 2
mph
1017.5mb 52f 55f
9:24  -  1 mph 1017.4mb 52f 55f
9:18  -  1 mph 1017.4mb 52f 56f
9:12  -  1 mph 1017.3mb 52f 56f
9:06  -  1 mph 1017.3mb 52f 56f
9:00  -  1 mph 1017.4mb 52f 55f
8:36  -  1 mph 1017.4mb 52f 54f
8:30  -  1 mph 1017.4mb 52f 54f
8:24  -  2 mph 1017.4mb 52f 54f
8:18  -  2 mph 1017.3mb 52f 54f
8:12 2
mph
1017.3mb 52f 53f
8:06 2 3 mph 1017.2mb 52f 53f
8:00 1 2 mph 1017.1mb 52f 53f
7:36  -  2 mph 1017mb 52f 55f
7:30  -  2 mph 1017mb 52f 55f
7:24 1 2 mph 1016.9mb 52f 54f
7:18  -  2 mph 1016.9mb 52f 55f
7:12  -  2 mph 1016.9mb 52f 55f
7:06  -  2 mph 1016.9mb 52f 55f
7:00  -  1 mph 1016.9mb 52f 55f
6:36  -  3 mph 1016.7mb 52f 52f
6:30  -  1 mph 1016.7mb 52f 53f
6:24  -  1 mph 1016.7mb 52f 53f
6:18  -  1 mph 1016.6mb 52f 51f
6:12  -  1 mph 1016.6mb 52f 51f
6:06  -  1 mph 1016.6mb 52f 51f
6:00 2 3 mph 1016.7mb 52f 49f
5:36  -  2 mph 1016.6mb 52f 51f
5:30 1 3 mph 1016.6mb 52f 51f
5:24 2 6 mph 1016.5mb 52f 50f
5:18  -  2 mph 1016.6mb 52f 51f
5:12  -  2 mph 1016.5mb 52f 51f
5:06  -  1 mph 1016.5mb 52f 51f
5:00  -  1 mph 1016.5mb 52f 51f
4:36 2 3 mph 1016.4mb 52f 50f
4:30 2
mph
1016.4mb 52f 50f
4:24  -  1 mph 1016.4mb 52f 51f
4:18  -  2 mph 1016.3mb 52f 50f
4:12 1 2 mph 1016.4mb 52f 50f
4:06 2 3 mph 1016.4mb 52f 51f
4:00  -  3 mph 1016.3mb 52f 51f
3:36  -  1 mph 1016.4mb 52f 51f
3:30  -  1 mph 1016.3mb 52f 51f
3:24  -  1 mph 1016.3mb 52f 51f
3:18  -  mph 1016.3mb 52f 51f
3:12  -  1 mph 1016.3mb 52f 51f
3:06  -  1 mph 1016.3mb 52f 51f
3:00  -  1 mph 1016.3mb 53f 51f
2:36 1 2 mph 1016.3mb 53f 51f
2:30  -  2 mph 1016.3mb 53f 51f
2:24 2
mph
1016.3mb 53f 51f
2:18 1
mph
1016.3mb 53f 51f
2:12  -  1 mph 1016.4mb 53f 51f
2:06  -  1 mph 1016.3mb 53f 52f
2:00  -  1 mph 1016.3mb 53f 52f
1:36  -  1 mph 1016.2mb 53f 52f
1:30  -  2 mph 1016.3mb 53f 52f
1:24  -  1 mph 1016.3mb 53f 52f
1:18 1 2 mph 1016.2mb 53f 52f
1:12 2 3 mph 1016.1mb 53f 52f
1:06  -  2 mph 1016.1mb 53f 52f
1:00 2 3 mph 1016.1mb 53f 52f
12:36  -  1 mph 1016mb 53f 52f
12:30  -  1 mph 1016mb 53f 52f
12:24  -  1 mph 1016mb 53f 52f
12:18  -  1 mph 1016mb 53f 52f
12:12  -  2 mph 1016mb 53f 52f
12:06 2 3 mph 1016mb 53f 53f
12:00 1 3 mph 1016mb 53f 53f
lun 07/21 11:36 2
mph
1015.9mb 53f 53f
11:30 2 3 mph 1015.8mb 53f 53f
11:24 2 3 mph 1015.8mb 53f 53f
11:18 3 5 mph 1015.9mb 53f 53f
11:12 3 5 mph 1015.8mb 53f 53f
11:06 5 6 mph 1015.9mb 53f 54f
11:00 5 8 mph 1015.9mb 53f 54f
10:36 1 2 mph 1015.8mb 53f 54f
10:30  -  1 mph 1015.8mb 53f 54f
10:24 1 2 mph 1015.8mb 53f 54f
10:18  -  mph 1015.7mb 53f 54f
10:12 1 2 mph 1015.8mb 53f 55f
10:06 1 2 mph 1015.8mb 53f 55f
10:00  -  1 mph 1015.8mb 53f 55f
9:36 5 6 mph 1015.7mb 53f 56f
9:30 6 8 mph 1015.6mb 53f 56f
9:24 7 8 mph 1015.6mb 53f 56f
9:18 6 8 mph 1015.6mb 53f 56f
9:12 7 8 mph 1015.5mb 53f 57f
9:06 6 9 mph 1015.5mb 53f 57f
9:00 7 9 mph 1015.5mb 53f 57f
8:36 6 9 mph 1015.5mb 53f 59f
8:30 7 8 mph 1015.4mb 53f 58f
8:24 8 9 mph 1015.4mb 53f 60f
8:18 8 9 mph 1015.4mb 53f 60f
8:12 8 9 mph 1015.4mb 53f 61f
8:06 9 10 mph 1015.4mb 53f 62f
8:00 7 9 mph 1015.3mb 53f 63f
7:36 9 10 mph 1015.5mb 53f 63f
7:30 9 10 mph 1015.5mb 53f 63f
7:24 9 10 mph 1015.6mb 53f 63f
7:18 8 9 mph 1015.6mb 53f 63f
7:12 8 9 mph 1015.6mb 53f 64f
7:06 8 10 mph 1015.6mb 53f 63f
7:00 8 9 mph 1015.6mb 53f 64f
6:36 8 9 mph 1015.5mb 53f 64f
6:30 7 9 mph 1015.5mb 53f 65f
6:24 7 9 mph 1015.5mb 53f 65f
6:18 7 9 mph 1015.5mb 53f 65f
6:12 8 9 mph 1015.5mb 53f 65f
6:06 8 10 mph 1015.6mb 53f 65f
6:00 9 11 mph 1015.6mb 52f 65f
5:36 6 8 mph 1015.7mb 52f 66f
5:30 7 8 mph 1015.8mb 51f 65f
5:24 6
mph
1015.8mb 51f 65f
5:18 3 6 mph 1015.8mb 51f 66f
5:12 5 6 mph 1015.9mb 51f 66f
5:06 5 6 mph 1016mb 51f 66f
5:00 5 6 mph 1016mb 51f 66f
4:36 5 6 mph 1016.1mb 52f 65f
4:30 3 8 mph 1016.2mb 52f 66f
4:24 5 8 mph 1016.2mb 52f 65f
4:18 6 9 mph 1016.3mb 52f 65f
4:12 5 7 mph 1016.4mb 52f 65f
4:06 5 7 mph 1016.4mb 52f 64f
4:00 5 7 mph 1016.4mb 52f 65f
3:54 2 8 mph 1016.5mb 52f 65f
3:48 2 6 mph 1016.5mb 52f 65f
3:36 7 10 mph 1016.7mb 52f 65f
3:30 6 10 mph 1016.7mb 52f 65f
3:24 8 11 mph 1016.8mb 52f 65f
3:18 8 10 mph 1016.7mb 52f 64f
3:12 7 11 mph 1016.7mb 52f 64f
3:06 5 8 mph 1016.8mb 52f 64f
3:00 6 7 mph 1016.8mb 52f 64f
2:54 3 6 mph 1016.8mb 52f 64f
2:48 5 7 mph 1016.8mb 52f 64f
2:36 6 9 mph 1016.9mb 52f 64f
2:30 6 8 mph 1017mb 52f 64f
2:24 6 9 mph 1017mb 52f 64f
2:18 6 8 mph 1017mb 52f 64f
2:12 6 9 mph 1017.1mb 52f 64f
2:06 5 7 mph 1017.1mb 52f 64f
2:00 6 8 mph 1017.1mb 52f 64f
1:54 5 6 mph 1017.1mb 52f 64f
1:48 5 8 mph 1017.2mb 52f 64f
1:36 8 9 mph 1017.2mb 51f 63f
1:30 7 11 mph 1017.2mb 51f 63f
1:24 8 10 mph 1017.3mb 51f 62f
1:18 9 11 mph 1017.3mb 51f 62f
1:12 5 9 mph 1017.3mb 51f 63f
1:06 6 8 mph 1017.3mb 51f 63f
1:00 6 9 mph 1017.3mb 51f 63f
12:54 5 6 mph 1017.3mb 51f 62f
12:48 3 5 mph 1017.3mb 51f 62f
12:36 5 7 mph 1017.4mb 51f 62f
12:30 7 9 mph 1017.4mb 51f 61f
12:24 6 8 mph 1017.4mb 51f 61f
12:18 6 8 mph 1017.5mb 51f 61f
12:12 7 9 mph 1017.5mb 52f 60f
12:06 7 10 mph 1017.5mb 52f 61f
12:00 2 5 mph 1017.5mb 52f 61f
11:54 2 6 mph 1017.5mb 52f 61f
11:48 5 7 mph 1017.5mb 52f 60f
11:36 5 7 mph 1017.6mb 52f 60f
11:30 3 6 mph 1017.6mb 52f 60f
11:24 3 7 mph 1017.6mb 52f 60f
11:18 6 7 mph 1017.6mb 52f 60f
11:12 5 7 mph 1017.6mb 52f 60f
11:06 6 8 mph 1017.6mb 52f 59f
11:00 5 7 mph 1017.5mb 52f 59f
10:54 5 8 mph 1017.5mb 52f 59f
10:48 6 9 mph 1017.5mb 53f 59f
10:36 6 9 mph 1017.5mb 53f 59f
10:30 6 9 mph 1017.4mb 53f 59f
10:24 7 9 mph 1017.4mb 53f 59f
10:18 7 9 mph 1017.3mb 53f 59f
10:12 7 9 mph 1017.2mb 53f 58f
10:06 6 8 mph 1017.2mb 52f 59f
10:00 6 9 mph 1017.2mb 52f 58f
9:54 6 8 mph 1017.2mb 52f 58f
9:48 6 9 mph 1017.3mb 52f 58f
9:36 5 7 mph 1017.3mb 52f 58f
9:30 3 6 mph 1017.4mb 52f 57f
9:24 5 6 mph 1017.4mb 52f 57f
9:18 6 8 mph 1017.4mb 52f 57f
9:12 6 9 mph 1017.4mb 52f 57f
9:06 6 8 mph 1017.3mb 52f 57f
9:00 2 6 mph 1017.3mb 52f 58f
8:54 6 10 mph 1017.3mb 52f 57f
8:48 7 10 mph 1017.3mb 52f 57f
8:36 1 6 mph 1017.4mb 52f 56f
8:30 2 6 mph 1017.4mb 52f 56f
8:24 7 11 mph 1017.4mb 52f 56f
8:18 9 14 mph 1017.4mb 52f 56f
8:12 5 8 mph 1017.4mb 52f 56f
8:06 8 13 mph 1017.4mb 52f 55f
8:00 7 9 mph 1017.3mb 52f 55f
7:54 3 6 mph 1017.3mb 52f 54f
7:48 3 6 mph 1017.2mb 52f 53f
7:36 5 6 mph 1017.2mb 52f 53f
7:30 5 7 mph 1017.2mb 52f 53f
7:24 3 5 mph 1017.1mb 52f 53f
7:18 1 2 mph 1017mb 52f 52f
7:12  -  2 mph 1017mb 52f 52f
7:06 2 5 mph 1016.9mb 52f 52f
7:00  -  1 mph 1016.8mb 52f 52f
6:54  -  1 mph 1016.8mb 52f 52f
6:48 1
mph
1016.8mb 52f 51f
6:36  -  2 mph 1016.6mb 52f 51f
6:30  -  mph 1016.6mb 52f 51f
6:24  -  1 mph 1016.5mb 52f 51f
6:18  -  2 mph 1016.4mb 52f 51f
6:12 1 2 mph 1016.4mb 52f 51f
6:06 1 3 mph 1016.4mb 52f 51f
6:00 1 3 mph 1016.4mb 52f 51f
5:54 1 2 mph 1016.5mb 52f 51f
5:48 1 2 mph 1016.4mb 52f 51f
5:36 1 2 mph 1016.3mb 52f 51f
5:30  -  2 mph 1016.3mb 52f 51f
5:24 2 3 mph 1016.1mb 52f 51f
5:18 2 3 mph 1016.1mb 52f 51f
5:12 2 3 mph 1016mb 52f 51f
5:06 2 3 mph 1016mb 52f 51f
5:00 2 3 mph 1015.9mb 52f 51f
4:54 2 3 mph 1015.8mb 52f 51f
4:48  -  2 mph 1015.7mb 52f 52f
4:36  -  2 mph 1015.6mb 52f 51f
4:30 1 2 mph 1015.7mb 52f 51f
4:24  -  2 mph 1015.6mb 52f 51f
4:18  -  mph 1015.6mb 52f 51f
4:12  -  1 mph 1015.5mb 52f 51f
4:06  -  mph 1015.5mb 52f 51f
4:00  -  mph 1015.5mb 52f 51f
3:54  -  mph 1015.6mb 52f 51f
3:48  -  1 mph 1015.6mb 52f 51f
3:36  -  2 mph 1015.4mb 52f 51f
3:30  -  1 mph 1015.3mb 52f 51f
3:24  -  1 mph 1015.3mb 52f 51f
3:18  -  1 mph 1015.2mb 52f 51f
3:12  -  1 mph 1015.1mb 52f 51f
3:06  -  2 mph 1015.2mb 52f 51f
3:00  -  2 mph 1015.2mb 52f 52f
2:54  -  1 mph 1015.2mb 52f 52f
2:48  -  1 mph 1015.1mb 52f 51f
2:36  -  1 mph 1015.1mb 52f 52f
2:30  -  2 mph 1015.1mb 52f 51f
2:24  -  1 mph 1015.1mb 52f 51f
2:18  -  1 mph 1015.1mb 52f 51f
2:12  -  1 mph 1015.1mb 52f 51f
2:06  -  1 mph 1015mb 52f 51f
2:00  -  1 mph 1014.9mb 52f 51f
1:54  -  1 mph 1014.9mb 52f 51f
1:48  -  1 mph 1014.9mb 52f 52f
1:36 1 2 mph 1014.9mb 52f 52f
1:30 1
mph
1014.9mb 52f 53f
1:24 1 2 mph 1015mb 52f 53f
1:18  -  2 mph 1014.9mb 52f 53f
1:12  -  2 mph 1014.8mb 52f 53f
1:06  -  1 mph 1014.8mb 52f 53f
1:00  -  1 mph 1014.8mb 52f 53f
12:54  -  mph 1014.8mb 52f 53f
12:48  -  1 mph 1014.8mb 52f 53f
12:36 1 2 mph 1014.7mb 52f 54f
12:30 1 2 mph 1014.8mb 52f 53f
12:24  -  2 mph 1014.8mb 52f 54f
12:18  -  1 mph 1014.7mb 52f 53f
12:12  -  2 mph 1014.7mb 52f 54f
12:06 2 3 mph 1014.6mb 52f 54f
12:00 3 5 mph 1014.6mb 52f 54f
dom 07/20 11:54 1 2 mph 1014.6mb 52f 53f
11:48  -  mph 1014.6mb 52f 53f
11:36  -  1 mph 1014.6mb 52f 54f
11:30 1
mph
1014.6mb 52f 54f
11:24  -  1 mph 1014.6mb 52f 54f
11:18 1 2 mph 1014.6mb 52f 55f
11:12 1 2 mph 1014.6mb 52f 55f
11:06 2 3 mph 1014.6mb 52f 55f
11:00 2 5 mph 1014.6mb 52f 55f
10:54 1 2 mph 1014.6mb 52f 55f
10:48  -  2 mph 1014.5mb 52f 55f
10:36  -  mph 1014.5mb 52f 55f
10:30 2 3 mph 1014.5mb 52f 55f
10:24 1 2 mph 1014.6mb 52f 55f
10:18 1 2 mph 1014.5mb 52f 55f
10:12 2
mph
1014.6mb 52f 55f
10:06 2 3 mph 1014.6mb 53f 55f
10:00 2 5 mph 1014.6mb 53f 55f
9:54 3 5 mph 1014.6mb 53f 55f
9:48 3 6 mph 1014.5mb 53f 54f
9:36 6 7 mph 1014.3mb 53f 56f
9:30 2 5 mph 1014.3mb 53f 57f
9:24 1 2 mph 1014.2mb 53f 59f
9:18 1 5 mph 1014.1mb 53f 59f
9:12 1 5 mph 1014.1mb 53f 59f
9:06 2 5 mph 1014.1mb 53f 59f
9:00 2 6 mph 1014.1mb 53f 60f
8:54 2 6 mph 1014mb 52f 60f
8:48 3 7 mph 1014mb 52f 60f
8:36 5 6 mph 1013.9mb 52f 60f
8:30 3 7 mph 1014mb 52f 59f
8:24 6 7 mph 1013.9mb 53f 59f
8:18 6
mph
1013.9mb 53f 60f
8:12 3 6 mph 1013.9mb 53f 60f
8:06 5
mph
1013.9mb 53f 60f
8:00 5 6 mph 1014mb 53f 60f
7:54 6 7 mph 1014mb 53f 60f
7:48 3 6 mph 1014mb 53f 59f
7:36 1 3 mph 1014.1mb 53f 58f
7:30  -  2 mph 1014mb 53f 57f
7:24 2
mph
1014mb 53f 57f
7:18  -  1 mph 1014mb 53f 57f
7:12 1 2 mph 1014mb 53f 57f
7:06 2
mph
1014mb 53f 56f
7:00 1 2 mph 1014mb 53f 57f
6:54 1 3 mph 1014mb 53f 56f
6:48 3 5 mph 1013.9mb 53f 56f
6:36  -  1 mph 1013.9mb 53f 59f
6:30 2 5 mph 1013.9mb 53f 59f
6:24 3 7 mph 1013.8mb 53f 59f
6:18 6 9 mph 1013.8mb 53f 59f
6:12 6 8 mph 1013.8mb 53f 59f
6:06 7 8 mph 1013.9mb 53f 59f
6:00 6 7 mph 1013.9mb 52f 59f
5:54 6 8 mph 1014mb 52f 59f
5:48 6 8 mph 1014mb 52f 58f
5:36 10 11 mph 1014.2mb 52f 58f
5:30 10 14 mph 1014.2mb 52f 58f
5:24 10 13 mph 1014.2mb 52f 58f
5:18 11 14 mph 1014.2mb 52f 59f
5:12 13 16 mph 1014.2mb 52f 59f
5:06 13 15 mph 1014.1mb 52f 60f
5:00 11 14 mph 1014mb 52f 60f
4:54 14 16 mph - - 60f
4:48 13 15 mph 1014.1mb 52f 60f
4:36 13 14 mph 1014.1mb 52f 60f
4:30 13 14 mph 1014.1mb 52f 61f
4:24 13 16 mph 1014mb 52f 64f
4:18 9 13 mph 1014mb 52f 64f
4:12 7 11 mph 1014.1mb 52f 64f
4:06 7 16 mph 1014.1mb 52f 64f
4:00 13 17 mph 1014mb 52f 64f
3:54 8 18 mph 1014mb 52f 66f
3:48 16 24 mph 1013.9mb 52f 65f
3:36 10 15 mph 1013.9mb 52f 64f
3:30 8 13 mph 1013.9mb 52f 63f
3:24 7 10 mph 1014mb 52f 62f
3:18 6 10 mph 1014.2mb 52f 62f
3:12 6 9 mph 1014.2mb 52f 61f
3:06 8 10 mph 1014.3mb 52f 61f
3:00 8 11 mph 1014.3mb 52f 61f
2:54 8 10 mph 1014.3mb 52f 61f
2:48 7 10 mph 1014.3mb 52f 61f
2:36 9 11 mph 1014.4mb 52f 60f
2:30 5 8 mph 1014.4mb 52f 61f
2:24 6 8 mph 1014.5mb 52f 60f
2:18 8 9 mph 1014.5mb 52f 58f
2:12 5 6 mph 1014.5mb 52f 58f
2:06 3 6 mph 1014.5mb 52f 58f
2:00 5 6 mph 1014.5mb 52f 57f
1:54 5 6 mph 1014.6mb 52f 56f
1:48 5 6 mph 1014.6mb 52f 56f
1:36 3 6 mph 1014.5mb 52f 56f
1:30 5 6 mph 1014.6mb 52f 56f
1:24 5 6 mph 1014.6mb 52f 56f
1:18 5 7 mph 1014.6mb 52f 55f
1:12 6 7 mph 1014.6mb 52f 56f
1:06 5 6 mph 1014.6mb 52f 56f
1:00 6 7 mph 1014.6mb 52f 56f
12:54 5 7 mph 1014.6mb 52f 56f
12:48 6 8 mph 1014.6mb 52f 57f
12:36 7 8 mph 1014.7mb 52f 56f
12:30 8 9 mph 1014.7mb 52f 55f
12:24 7 8 mph 1014.6mb 52f 55f
12:18 7 8 mph 1014.7mb 52f 57f
12:12 7 8 mph 1014.6mb 52f 56f
12:06 7 8 mph 1014.7mb 52f 56f
12:00 8
mph
1014.7mb 52f 56f
11:54 8 9 mph 1014.6mb 52f 56f
11:48 8
mph
1014.7mb 52f 56f
11:36 7 8 mph 1014.6mb 52f 55f
11:30 7
mph
1014.6mb 52f 56f
11:24 7 8 mph 1014.6mb 52f 56f
11:18 7 8 mph 1014.6mb 52f 55f
11:12 6 7 mph 1014.6mb 52f 56f
11:06 6 7 mph 1014.5mb 52f 55f
11:00 5 6 mph 1014.5mb 52f 55f
10:54 5 6 mph 1014.5mb 52f 55f
10:48 6
mph
1014.5mb 52f 55f
10:36 3 5 mph 1014.6mb 52f 56f
10:30 3 6 mph 1014.5mb 52f 56f
10:24 3 5 mph 1014.5mb 52f 55f
10:18 5 6 mph 1014.4mb 52f 54f
10:12 5 6 mph 1014.4mb 52f 54f
10:06 3 5 mph 1014.4mb 52f 55f
10:00 3 6 mph 1014.3mb 52f 55f
9:54 3 5 mph 1014.3mb 52f 55f
9:48 3 5 mph 1014.3mb 52f 55f
9:36 2 5 mph 1014.3mb 52f 55f
9:30 2 5 mph 1014.3mb 52f 55f
9:24 2 6 mph 1014.3mb 52f 55f
9:18 3
mph
1014.2mb 52f 55f
9:12 2 3 mph 1014.2mb 52f 55f
9:06 2 3 mph 1014.2mb 52f 55f
9:00 2 3 mph 1014.1mb 52f 55f
8:54 3 5 mph 1014.1mb 52f 55f
8:48 3 5 mph 1014.1mb 52f 55f
8:36 3 6 mph 1014.2mb 52f 54f
8:30 3 5 mph 1014.1mb 52f 54f
8:24 2 3 mph 1014.2mb 52f 55f
8:18 2 3 mph 1014.1mb 52f 55f
8:12 3 5 mph 1014mb 52f 54f
8:06 2 3 mph 1014.1mb 52f 54f
8:00 2
mph
1014mb 52f 54f
7:54  -  3 mph 1014mb 52f 54f
7:48 1 2 mph 1013.9mb 52f 54f
7:36  -  1 mph 1013.9mb 52f 54f
7:30 1 2 mph 1013.8mb 52f 54f
7:24 1 2 mph 1013.8mb 52f 55f
7:18  -  1 mph 1013.8mb 52f 55f
7:12  -  1 mph 1013.8mb 52f 55f
7:06 1 2 mph 1013.7mb 52f 54f
7:00 1 2 mph 1013.7mb 52f 54f
6:54  -  1 mph 1013.7mb 52f 55f
6:48  -  mph 1013.7mb 52f 55f
6:36 2
mph
1013.7mb 52f 55f
6:30  -  1 mph 1013.6mb 52f 55f
6:24  -  2 mph 1013.6mb 52f 54f
6:18  -  3 mph 1013.6mb 52f 54f
6:12  -  3 mph 1013.6mb 52f 54f
6:06 1 2 mph 1013.6mb 52f 55f
6:00 2 3 mph 1013.6mb 52f 55f
5:54 1 2 mph 1013.6mb 52f 55f
5:48 1 2 mph 1013.5mb 52f 55f
5:36 2 3 mph 1013.5mb 52f 55f
5:30 2
mph
1013.4mb 52f 56f
5:24  -  1 mph 1013.4mb 52f 56f
5:18 1 3 mph 1013.4mb 52f 56f
5:12 1 3 mph 1013.3mb 52f 58f
5:06 2 3 mph 1013.3mb 52f 57f
5:00 1 3 mph 1013.3mb 52f 57f
4:54 3
mph
1013.3mb 52f 57f
4:48 2 3 mph 1013.2mb 52f 58f
4:36 1 2 mph 1013.2mb 52f 58f
4:30 2
mph
1013.1mb 52f 58f
4:24  -  1 mph 1013.1mb 52f 58f
4:18  -  3 mph 1013mb 52f 57f
4:12 2
mph
1013mb 52f 57f
4:06  -  3 mph 1013mb 52f 56f
4:00 1 3 mph 1013mb 52f 57f
3:54 2
mph
1013mb 52f 58f
3:48  -  1 mph - - 58f
3:36 2
mph
- - 58f
3:30  -  1 mph - - 59f
3:24  -  2 mph 1013mb 52f 59f
3:18  -  2 mph 1013mb 52f 59f
3:12  -  5 mph 1013mb 52f 59f
3:06 2 7 mph 1013mb 52f 60f
3:00 5 9 mph 1013mb 52f 59f
2:54 5 8 mph 1013mb 52f 60f
2:48 5 9 mph 1013mb 52f 60f
2:36 10 13 mph 1012.9mb 52f 60f
2:30 10 11 mph 1012.9mb 52f 60f
2:24 7 13 mph 1013mb 52f 60f
2:18 8 13 mph 1013mb 52f 60f
2:12 9 11 mph 1013mb 52f 60f
2:06 9 14 mph 1013mb 52f 60f
2:00 8 14 mph 1012.9mb 52f 60f
1:54 9 11 mph 1012.9mb 52f 60f
1:48 9 14 mph 1012.9mb 52f 60f
1:36 9 15 mph 1012.9mb 52f 60f
1:30 7 13 mph 1012.9mb 52f 60f
1:24 7 10 mph 1012.9mb 52f 61f
1:18 5 8 mph 1013mb 52f 60f
1:12 1 5 mph 1013mb 52f 61f
1:06 3 7 mph 1013mb 52f 61f
1:00 8 10 mph 1012.9mb 52f 61f
12:54 6 8 mph 1013mb 52f 61f
12:48 6 9 mph 1013mb 52f 61f
12:36 6 9 mph 1013mb 52f 61f
12:30 3 8 mph 1013mb 52f 61f
12:24 6 10 mph 1013.1mb 52f 61f
12:18 7 14 mph 1013.1mb 52f 61f
12:12 7 9 mph 1013.2mb 52f 61f
12:06 5 8 mph 1013.3mb 52f 61f
12:00 1 3 mph 1013.3mb 52f 61f
sáb 07/19 11:54  -  6 mph 1013.3mb 52f 61f
11:48 1 5 mph 1013.2mb 52f 61f
11:36 3 8 mph 1013.1mb 52f 62f
11:30 2 8 mph 1013mb 52f 62f
11:24 5 8 mph 1013.1mb 52f 61f
11:18 2 7 mph 1013.1mb 52f 61f
11:12 1 3 mph 1013.2mb 52f 59f
11:06 2 3 mph 1013.2mb 52f 59f
11:00  -  3 mph 1013mb 52f 59f
10:54 2 6 mph 1013mb 52f 60f
10:48 1 3 mph 1013mb 52f 59f
10:36 5 6 mph 1013mb 52f 59f
10:30 2 3 mph 1013mb 52f 61f
10:24 2 3 mph 1013mb 52f 61f
10:18 2 6 mph 1013mb 52f 60f
10:12 3 6 mph 1013mb 52f 60f
10:06 1 3 mph 1013mb 52f 61f
10:00 2 6 mph 1012.9mb 52f 61f
9:54 6 7 mph 1012.9mb 52f 61f
9:48 3 8 mph 1012.9mb 52f 61f
9:36 6 8 mph 1013mb 52f 61f
9:30 9 10 mph 1013.1mb 52f 61f
9:24 6 8 mph 1013.1mb 52f 61f
9:18 6 9 mph 1013mb 52f 61f
9:12 5 10 mph 1013mb 52f 61f
9:06 3 7 mph 1013mb 52f 61f
9:00 2 6 mph 1013.1mb 52f 61f
8:54 1 7 mph 1013.1mb 52f 61f
8:48 3 8 mph 1013.1mb 53f 60f
8:36 8 14 mph 1013mb 53f 60f
8:30 11 15 mph 1013.2mb 53f 60f
8:24 11 15 mph 1013.2mb 53f 60f
8:18 11 15 mph 1013.2mb 53f 60f
8:12 9 11 mph 1013.2mb 53f 60f
8:06 8 10 mph 1013.2mb 53f 61f
8:00 10 15 mph 1013.1mb 53f 63f
7:54 13 16 mph 1013mb 53f 64f
7:48 11 14 mph 1013.1mb 53f 64f
7:36 10 15 mph 1013.2mb 53f 65f
7:30 13 16 mph 1013.1mb 53f 66f
7:24 11 14 mph 1013.2mb 52f 64f
7:18 9 14 mph 1013.2mb 52f 65f
7:12 11 15 mph 1013.3mb 52f 66f
7:06 13 15 mph 1013.3mb 52f 65f
7:00 13 17 mph 1013.3mb 52f 65f
6:54 13 16 mph 1013.4mb 52f 66f
6:48 14 17 mph 1013.4mb 52f 65f
6:36 10 13 mph 1013.3mb 52f 66f
6:30 11 14 mph 1013.3mb 52f 66f
6:24 6 10 mph 1013.3mb 52f 66f
6:18 5 10 mph 1013.4mb 53f 64f
6:12 6 11 mph 1013.5mb 52f 63f
6:06 8 11 mph 1013.5mb 52f 62f
6:00 8 11 mph 1013.5mb 52f 62f
5:36 3 9 mph 1013.7mb 52f 62f
5:30 9 14 mph 1013.8mb 53f 64f
5:24 11 14 mph 1013.8mb 52f 63f
5:18 10 13 mph 1013.9mb 52f 64f
5:12 8 10 mph 1013.9mb 52f 65f
5:06 9 13 mph 1014mb 52f 64f
5:00 10 14 mph 1014.1mb 52f 64f
4:54 10 13 mph 1014.1mb 52f 64f
4:48 7 9 mph 1014.1mb 52f 64f
4:36 6 8 mph 1014.2mb 52f 63f
4:30 7 9 mph 1014.2mb 52f 62f
4:24 7 9 mph 1014.3mb 52f 63f
4:18 6 8 mph 1014.3mb 52f 62f
4:12 6 8 mph 1014.3mb 52f 62f
4:06 7 9 mph 1014.4mb 52f 62f
4:00 6 9 mph 1014.5mb 52f 62f
3:54 5 9 mph 1014.5mb 52f 62f
3:48 2 3 mph 1014.5mb 52f 61f
3:36 3 6 mph 1014.6mb 52f 60f
3:30 2 5 mph 1014.7mb 52f 60f
3:24 3 5 mph 1014.7mb 52f 60f
3:18 2 5 mph 1014.8mb 52f 61f
3:12 2 5 mph 1014.9mb 52f 61f
3:06 2 8 mph 1014.9mb 52f 61f
3:00 6 9 mph 1015mb 52f 60f
2:54 5 15 mph 1014.9mb 52f 60f
2:48 8 16 mph 1015mb 52f 60f
2:36 9 15 mph 1015.1mb 52f 59f
2:30 8 16 mph 1015.1mb 52f 59f
2:24 6 11 mph 1015.1mb 52f 59f
2:18 7 14 mph 1015.2mb 52f 59f
2:12 7 11 mph 1015.2mb 52f 59f
2:06 7 11 mph 1015.2mb 52f 59f
2:00 7 13 mph 1015.4mb 52f 59f
1:54 9 13 mph 1015.4mb 52f 59f
1:48 9 16 mph 1015.4mb 52f 59f
1:36 11 18 mph 1015.4mb 52f 60f
1:30 9 15 mph 1015.4mb 52f 60f
1:24 8 14 mph 1015.5mb 52f 60f
1:18 7 13 mph 1015.5mb 52f 60f
1:12 7 13 mph 1015.6mb 52f 60f
1:06 8 14 mph 1015.6mb 52f 60f
1:00 8 14 mph 1015.6mb 52f 60f
12:54 10 14 mph 1015.6mb 52f 60f
12:48 7 14 mph 1015.7mb 52f 60f
12:36 9 15 mph 1015.7mb 52f 60f
12:30 10 15 mph 1015.7mb 52f 60f
12:24 11 16 mph 1015.6mb 52f 60f
12:18 10 14 mph 1015.6mb 52f 59f
12:12 8 11 mph 1015.5mb 52f 59f
12:06 8 14 mph 1015.6mb 52f 59f
12:00 10 15 mph 1015.6mb 52f 59f
11:54 7 13 mph 1015.7mb 52f 59f
11:48 8 14 mph 1015.7mb 52f 58f
11:36 8 11 mph 1015.8mb 52f 58f
11:30 9 11 mph 1015.8mb 52f 57f
11:24 8 11 mph 1015.7mb 52f 58f
11:18 8 13 mph 1015.8mb 52f 58f
11:12 6 14 mph 1015.8mb 52f 57f
11:06 8 13 mph 1016.1mb 52f 56f
11:00 5 9 mph 1015.9mb 52f 56f
10:54 6 11 mph 1016mb 52f 57f
10:48 8 13 mph 1016mb 52f 57f
10:36 6 9 mph 1016.1mb 52f 56f
10:30 6 9 mph 1016mb 52f 56f
10:24 5 9 mph 1016.2mb 52f 56f
10:18 8 10 mph 1016.2mb 52f 56f
10:12 5 8 mph 1016.1mb 52f 56f
10:06 3 8 mph 1016mb 52f 56f
10:00 7 11 mph 1016.1mb 52f 56f
9:54 8 10 mph 1016.1mb 52f 56f
9:48 7 10 mph 1016.1mb 52f 56f
9:36 7 10 mph 1016.2mb 52f 56f
9:30 6 9 mph 1016.3mb 52f 56f
9:24 7 13 mph 1016.2mb 52f 56f
9:18 6 8 mph 1016.1mb 52f 56f
9:12 5 9 mph 1016.1mb 52f 56f
9:06 7 11 mph 1016mb 52f 56f
9:00 8 11 mph 1016mb 52f 56f
8:54 6 11 mph 1016.1mb 52f 56f
8:48 7 10 mph 1016.2mb 52f 56f
8:36 6 9 mph 1016.4mb 52f 55f
8:30 5 10 mph 1016.5mb 52f 55f
8:24 8 13 mph 1016.5mb 52f 55f
8:18 9 13 mph 1016.5mb 52f 55f
8:12 9 14 mph 1016.5mb 52f 56f
8:06 9 14 mph 1016.5mb 52f 56f
8:00 6 15 mph 1016.5mb 52f 56f
7:54 6 11 mph 1016.5mb 52f 55f
7:48 10 15 mph 1016.5mb 52f 55f
7:36 5 10 mph 1016.5mb 52f 56f
7:30 6 8 mph 1016.6mb 52f 56f
7:24 5 9 mph 1016.6mb 52f 56f
7:18 9 16 mph 1016.6mb 52f 56f
7:12 11 17 mph 1016.6mb 52f 56f
7:06 7 16 mph 1016.7mb 52f 56f
7:00 9 15 mph 1016.8mb 52f 56f
6:54 9 13 mph 1016.6mb 52f 57f
6:48 9 11 mph 1016.6mb 52f 56f
6:36 13 21 mph 1016.4mb 52f 56f
6:30 8 16 mph 1016.4mb 52f 57f
6:24 14 18 mph 1016.5mb 52f 58f
6:18 8 11 mph 1016.4mb 52f 58f
6:12 7 13 mph 1016.5mb 52f 60f
6:06 10 14 mph 1016.4mb 52f 60f
6:00 13 17 mph 1016.4mb 52f 60f
5:54 15 18 mph 1016.3mb 52f 59f
5:48 17 22 mph 1016.2mb 52f 59f
5:36 13 15 mph 1016.3mb 52f 58f
5:30 14 18 mph 1016.3mb 52f 58f
5:24 15 20 mph 1016.3mb 52f 58f
5:18 13 16 mph 1016mb 52f 57f
5:12 13 15 mph 1016.2mb 52f 56f
5:06 7 10 mph 1016.2mb 52f 56f
5:00 7 10 mph 1016.4mb 52f 56f
4:54 5 9 mph 1016.4mb 52f 56f
4:48 6 13 mph 1016.4mb 52f 55f
4:36 9 15 mph 1016.2mb 52f 57f
4:30 8 14 mph 1016mb 52f 58f
4:24 10 11 mph 1016mb 52f 55f
4:18 5 8 mph 1016.2mb 52f 58f
4:12 2 6 mph 1016.3mb 52f 58f
4:06 5 13 mph 1016.2mb 52f 58f
4:00 10 15 mph 1015.9mb 52f 59f
3:54 9 16 mph 1015.9mb 52f 60f
3:48 11 17 mph 1016mb 52f 61f
3:36 10 14 mph 1016.1mb 52f 61f
3:30 9 13 mph 1016mb 52f 61f
3:24 5 7 mph 1015.9mb 52f 60f
3:18 3 5 mph 1015.9mb 52f 60f
3:12 5 8 mph 1015.8mb 52f 60f
3:06 5 7 mph 1015.8mb 52f 61f
3:00 6 8 mph 1015.8mb 52f 61f
2:54 7 11 mph 1015.7mb 52f 61f
2:48 7 8 mph 1015.8mb 52f 61f
2:36 6 9 mph 1016mb 52f 61f
2:30 5 8 mph 1016mb 52f 61f
2:24 6 8 mph 1015.9mb 52f 61f
2:18 3 13 mph 1016.1mb 52f 60f
2:12 8 11 mph 1016mb 52f 60f
2:06 5 7 mph 1016.1mb 52f 60f
2:00 3 6 mph 1015.9mb 52f 60f
1:54 6 7 mph 1015.9mb 52f 60f
1:48 6 9 mph 1016.1mb 52f 59f
1:36 8 10 mph 1016.1mb 52f 60f
1:30 7 10 mph 1016.3mb 52f 59f
1:24 10 11 mph 1016.2mb 52f 60f
1:18 8 13 mph 1016.1mb 52f 58f
1:12  -  1 mph 1016.1mb 52f 58f
1:06  -  2 mph 1016.1mb 52f 58f
1:00 1 3 mph 1016.3mb 52f 57f
12:54 2 3 mph 1016.5mb 52f 58f
12:48 3 6 mph 1016.4mb 52f 60f
12:36 6 8 mph 1016.7mb 52f 59f
12:30 8 11 mph 1016.6mb 52f 58f
12:24 9 10 mph 1016.7mb 52f 60f
12:18 8 10 mph 1016.5mb 52f 60f
12:12 5 7 mph 1016.6mb 52f 61f
12:06 7 8 mph 1016.5mb 52f 62f
12:00 5 8 mph 1016.6mb 52f 62f
vie 07/18 11:54 9 11 mph 1016.5mb 52f 62f